Kennicott — WCY2920 — position and weather

sailwx.info

Track history (hours):
 
Tides and Currents Weather Stations Pressure Air Temp Water Temp Dewpoint Dewpoint Depression Visibility Wind Speed Wind Dir Waves Ship Positions

Kennicott

Owner: ALASKA, STATE OF, Anchorage, AK. More information available from US FCC via Universal Licensing System and Coast Guard Vessel Documentation Center.

Last reported at 2019-Aug-14 03:30 UTC. Time now 2019-Aug-20 10:28 UTC.
Position N 58°10' W 136°39'.

Type: Passenger vessel. MMSI: 368250000.

Date/timePositionNaut miles runAvg speedWind from/ knotsBaromVisibWave heightAir tempDewpointWater temp
2019-Aug-14 03:30N 58°10' W 136°39'6 3.0
2019-Aug-14 01:39N 58°09' W 136°28'815.6
2019-Aug-14 01:07N 58°17' W 136°25'218.1
2019-Aug-14 01:00N 58°18' W 136°21'917.5
2019-Aug-14 00:31N 58°20' W 136°05'816.8
2019-Aug-14 00:01N 58°18' W 135°49'816.0
2019-Aug-13 23:29N 58°16' W 135°34'243 7.1
2019-Aug-12 13:20N 55°02' W 131°07'815.0
2019-Aug-12 12:48N 54°54' W 131°02'414.9
2019-Aug-12 12:30N 54°50' W 130°59'714.8
2019-Aug-12 12:00N 54°44' W 130°53'714.5
2019-Aug-12 11:30N 54°38' W 130°44'713.6
2019-Aug-12 11:00N 54°32' W 130°39'713.7
2019-Aug-12 10:30N 54°25' W 130°37'714.0
2019-Aug-12 10:00N 54°19' W 130°35'714.2
2019-Aug-12 09:30N 54°12' W 130°29'713.3
2019-Aug-12 09:00N 54°07' W 130°23'714.7
2019-Aug-12 08:30N 54°02' W 130°14'714.6
2019-Aug-12 08:00N 53°55' W 130°10'714.9
2019-Aug-12 07:30N 53°50' W 130°00'815.3
2019-Aug-12 07:01N 53°44' W 129°51'7714.0
2019-Aug-12 01:30N 52°43' W 128°34'714.4
2019-Aug-12 01:00N 52°36' W 128°29'815.9
2019-Aug-12 00:31N 52°28' W 128°27'815.3
2019-Aug-12 00:00N 52°21' W 128°32'714.6
2019-Aug-11 23:30N 52°16' W 128°25'816.3
2019-Aug-11 23:00N 52°14' W 128°12'5 9.1
2019-Aug-11 22:30N 52°10' W 128°08'4 8.5
2019-Aug-11 22:00N 52°06' W 128°07'714.4
2019-Aug-11 21:31N 52°04' W 127°56'815.2
2019-Aug-11 21:01N 51°56' W 127°56'815.8
2019-Aug-11 20:30N 51°48' W 127°56'815.7
2019-Aug-11 20:00N 51°40' W 127°55'815.2
2019-Aug-11 19:31N 51°33' W 127°52'815.3
2019-Aug-11 19:01N 51°25' W 127°51'714.7
2019-Aug-11 18:31N 51°18' W 127°52'714.8
2019-Aug-11 18:01N 51°11' W 127°51'815.1
2019-Aug-11 17:30N 51°05' W 127°42'814.9
2019-Aug-11 16:59N 50°59' W 127°34'2615.2
2019-Aug-11 15:15N 50°45' W 126°60'6416.3
2019-Aug-11 11:19N 50°20' W 125°26'516.4
2019-Aug-11 11:00N 50°16' W 125°24'816.8
2019-Aug-11 10:31N 50°07' W 125°21'714.2
2019-Aug-11 10:00N 50°02' W 125°13'713.1
2019-Aug-11 09:30N 49°57' W 125°08'816.3
2019-Aug-11 09:00N 49°51' W 124°58'816.3
2019-Aug-11 08:30N 49°45' W 124°50'816.3
2019-Aug-11 08:00N 49°39' W 124°41'916.2
2019-Aug-11 07:28N 49°33' W 124°31'816.8
2019-Aug-11 06:58N 49°28' W 124°22'816.9
2019-Aug-11 06:30N 49°24' W 124°11'816.9
2019-Aug-11 06:00N 49°22' W 123°59'816.3
2019-Aug-11 05:30N 49°20' W 123°46'816.4
2019-Aug-11 05:00N 49°15' W 123°37'816.8
2019-Aug-11 04:30N 49°09' W 123°28'816.5
2019-Aug-11 04:00N 49°03' W 123°19'816.1
2019-Aug-11 03:30N 48°58' W 123°10'816.2
2019-Aug-11 03:00N 48°53' W 123°01'816.5
2019-Aug-11 02:30N 48°47' W 122°51'815.7
2019-Aug-11 02:00N 48°41' W 122°43'613.0
2019-Aug-11 01:30N 48°39' W 122°34'5 8.9
2019-Aug-11 00:59N 48°43' W 122°31'0 0.0
2019-Aug-11 00:29N 48°43' W 122°31'0 0.0
2019-Aug-10 23:59N 48°43' W 122°31'0 0.0
2019-Aug-10 23:29N 48°43' W 122°31'0 0.0
2019-Aug-10 22:59N 48°43' W 122°31'0 0.0
2019-Aug-10 22:23N 48°43' W 122°31'0 0.0
2019-Aug-10 21:59N 48°43' W 122°31'0 0.0
2019-Aug-10 21:29N 48°43' W 122°31'0 0.0
2019-Aug-10 20:53N 48°43' W 122°31'0 0.0
2019-Aug-10 20:29N 48°43' W 122°31'0 0.0
2019-Aug-10 19:59N 48°43' W 122°31'0 0.0
2019-Aug-10 19:29N 48°43' W 122°31'0 0.0
2019-Aug-10 18:59N 48°43' W 122°31'0 0.0
2019-Aug-10 18:29N 48°43' W 122°31'0 0.0
2019-Aug-10 17:59N 48°43' W 122°31'0 0.0
2019-Aug-10 17:29N 48°43' W 122°31'0 0.0
2019-Aug-10 16:59N 48°43' W 122°31'0 0.0
2019-Aug-10 16:29N 48°43' W 122°31'0 0.0
2019-Aug-10 15:59N 48°43' W 122°31'0 0.0
2019-Aug-10 15:29N 48°43' W 122°31'0 0.0
2019-Aug-10 14:59N 48°43' W 122°31'0 0.3
2019-Aug-10 14:30N 48°44' W 122°31'4 8.3
2019-Aug-10 14:00N 48°40' W 122°33'5 9.5
2019-Aug-10 13:30N 48°39' W 122°40'713.6
2019-Aug-10 13:00N 48°44' W 122°46'714.1
2019-Aug-10 12:30N 48°48' W 122°55'714.3
2019-Aug-10 12:00N 48°52' W 123°05'815.3
2019-Aug-10 11:30N 48°57' W 123°13'816.6
2019-Aug-10 11:00N 49°03' W 123°23'816.0
2019-Aug-10 10:30N 49°08' W 123°31'815.5
2019-Aug-10 10:00N 49°14' W 123°39'816.3
2019-Aug-10 09:30N 49°19' W 123°49'815.1
2019-Aug-10 09:00N 49°23' W 123°59'815.8
2019-Aug-10 08:30N 49°24' W 124°11'815.5
2019-Aug-10 08:00N 49°28' W 124°22'915.9
2019-Aug-10 07:28N 49°33' W 124°32'715.8
2019-Aug-10 07:00N 49°38' W 124°40'816.0
2019-Aug-10 06:30N 49°44' W 124°48'816.4
2019-Aug-10 06:00N 49°50' W 124°57'815.7
2019-Aug-10 05:30N 49°55' W 125°06'815.4
2019-Aug-10 05:01N 50°02' W 125°13'612.6
2019-Aug-10 04:30N 50°07' W 125°19'815.2
2019-Aug-10 03:58N 50°14' W 125°23'9314.3
2019-Aug-09 21:29N 50°58' W 127°31'814.4
2019-Aug-09 20:56N 51°04' W 127°40'613.8
2019-Aug-09 20:31N 51°08' W 127°47'714.9
2019-Aug-09 20:00N 51°14' W 127°53'816.0
2019-Aug-09 19:30N 51°22' W 127°52'815.7
2019-Aug-09 19:00N 51°30' W 127°52'816.4
2019-Aug-09 18:30N 51°38' W 127°54'816.3
2019-Aug-09 18:00N 51°46' W 127°56'816.3
2019-Aug-09 17:30N 51°55' W 127°56'816.5
2019-Aug-09 17:00N 52°03' W 127°56'713.7
2019-Aug-09 16:30N 52°05' W 128°06'510.7
2019-Aug-09 16:00N 52°10' W 128°08'5 9.3
2019-Aug-09 15:30N 52°14' W 128°12'815.8
2019-Aug-09 15:00N 52°16' W 128°25'815.9
2019-Aug-09 14:30N 52°14' W 128°38'611.2
2019-Aug-09 14:00N 52°16' W 128°47'815.3
2019-Aug-09 13:30N 52°23' W 128°50'815.4
2019-Aug-09 13:00N 52°31' W 128°52'714.6
2019-Aug-09 12:30N 52°38' W 128°55'714.7
2019-Aug-09 12:00N 52°43' W 129°03'815.5
2019-Aug-09 11:30N 52°49' W 129°12'815.3
2019-Aug-09 11:00N 52°55' W 129°21'815.4
2019-Aug-09 10:30N 53°00' W 129°29'915.9
2019-Aug-09 09:58N 53°08' W 129°37'815.6
2019-Aug-09 09:28N 53°14' W 129°43'715.6
2019-Aug-09 08:59N 53°21' W 129°50'815.3
2019-Aug-09 08:27N 53°27' W 129°59'815.9
2019-Aug-09 07:57N 53°32' W 130°09'715.9
2019-Aug-09 07:30N 53°36' W 130°19'815.6
2019-Aug-09 06:59N 53°41' W 130°30'815.7
2019-Aug-09 06:30N 53°46' W 130°40'815.8
2019-Aug-09 06:00N 53°51' W 130°50'815.4
2019-Aug-09 05:30N 53°57' W 130°58'815.9
2019-Aug-09 05:00N 54°05' W 131°00'815.4
2019-Aug-09 04:30N 54°12' W 131°02'815.7
2019-Aug-09 04:00N 54°20' W 131°03'815.4
2019-Aug-09 03:30N 54°28' W 131°04'1115.4
2019-Aug-09 02:46N 54°39' W 131°00'415.6
2019-Aug-09 02:31N 54°43' W 131°02'  
Track history (hours):
 
Tides and Currents Weather Stations Pressure Air Temp Water Temp Dewpoint Dewpoint Depression Visibility Wind Speed Wind Dir Waves Ship Positions

Kennicott

Owner: ALASKA, STATE OF, Anchorage, AK. More information available from US FCC via Universal Licensing System and Coast Guard Vessel Documentation Center.

Last reported at 2019-Aug-14 03:30 UTC. Time now 2019-Aug-20 10:28 UTC.
Position N 58°10' W 136°39'.

Type: Passenger vessel. MMSI: 368250000.

Date/timePositionNaut miles runAvg speedWind from/ knotsBaromVisibWave heightAir tempDewpointWater temp
2019-Aug-14 03:30N 58°10' W 136°39'6 3.0
2019-Aug-14 01:39N 58°09' W 136°28'815.6
2019-Aug-14 01:07N 58°17' W 136°25'218.1
2019-Aug-14 01:00N 58°18' W 136°21'917.5
2019-Aug-14 00:31N 58°20' W 136°05'816.8
2019-Aug-14 00:01N 58°18' W 135°49'816.0
2019-Aug-13 23:29N 58°16' W 135°34'243 7.1
2019-Aug-12 13:20N 55°02' W 131°07'815.0
2019-Aug-12 12:48N 54°54' W 131°02'414.9
2019-Aug-12 12:30N 54°50' W 130°59'714.8
2019-Aug-12 12:00N 54°44' W 130°53'714.5
2019-Aug-12 11:30N 54°38' W 130°44'713.6
2019-Aug-12 11:00N 54°32' W 130°39'713.7
2019-Aug-12 10:30N 54°25' W 130°37'714.0
2019-Aug-12 10:00N 54°19' W 130°35'714.2
2019-Aug-12 09:30N 54°12' W 130°29'713.3
2019-Aug-12 09:00N 54°07' W 130°23'714.7
2019-Aug-12 08:30N 54°02' W 130°14'714.6
2019-Aug-12 08:00N 53°55' W 130°10'714.9
2019-Aug-12 07:30N 53°50' W 130°00'815.3
2019-Aug-12 07:01N 53°44' W 129°51'7714.0
2019-Aug-12 01:30N 52°43' W 128°34'714.4
2019-Aug-12 01:00N 52°36' W 128°29'815.9
2019-Aug-12 00:31N 52°28' W 128°27'815.3
2019-Aug-12 00:00N 52°21' W 128°32'714.6
2019-Aug-11 23:30N 52°16' W 128°25'816.3
2019-Aug-11 23:00N 52°14' W 128°12'5 9.1
2019-Aug-11 22:30N 52°10' W 128°08'4 8.5
2019-Aug-11 22:00N 52°06' W 128°07'714.4
2019-Aug-11 21:31N 52°04' W 127°56'815.2
2019-Aug-11 21:01N 51°56' W 127°56'815.8
2019-Aug-11 20:30N 51°48' W 127°56'815.7
2019-Aug-11 20:00N 51°40' W 127°55'815.2
2019-Aug-11 19:31N 51°33' W 127°52'815.3
2019-Aug-11 19:01N 51°25' W 127°51'714.7
2019-Aug-11 18:31N 51°18' W 127°52'714.8
2019-Aug-11 18:01N 51°11' W 127°51'815.1
2019-Aug-11 17:30N 51°05' W 127°42'814.9
2019-Aug-11 16:59N 50°59' W 127°34'2615.2
2019-Aug-11 15:15N 50°45' W 126°60'6416.3
2019-Aug-11 11:19N 50°20' W 125°26'516.4
2019-Aug-11 11:00N 50°16' W 125°24'816.8
2019-Aug-11 10:31N 50°07' W 125°21'714.2
2019-Aug-11 10:00N 50°02' W 125°13'713.1
2019-Aug-11 09:30N 49°57' W 125°08'816.3
2019-Aug-11 09:00N 49°51' W 124°58'816.3
2019-Aug-11 08:30N 49°45' W 124°50'816.3
2019-Aug-11 08:00N 49°39' W 124°41'916.2
2019-Aug-11 07:28N 49°33' W 124°31'816.8
2019-Aug-11 06:58N 49°28' W 124°22'816.9
2019-Aug-11 06:30N 49°24' W 124°11'816.9
2019-Aug-11 06:00N 49°22' W 123°59'816.3
2019-Aug-11 05:30N 49°20' W 123°46'816.4
2019-Aug-11 05:00N 49°15' W 123°37'816.8
2019-Aug-11 04:30N 49°09' W 123°28'816.5
2019-Aug-11 04:00N 49°03' W 123°19'816.1
2019-Aug-11 03:30N 48°58' W 123°10'816.2
2019-Aug-11 03:00N 48°53' W 123°01'816.5
2019-Aug-11 02:30N 48°47' W 122°51'815.7
2019-Aug-11 02:00N 48°41' W 122°43'613.0
2019-Aug-11 01:30N 48°39' W 122°34'5 8.9
2019-Aug-11 00:59N 48°43' W 122°31'0 0.0
2019-Aug-11 00:29N 48°43' W 122°31'0 0.0
2019-Aug-10 23:59N 48°43' W 122°31'0 0.0
2019-Aug-10 23:29N 48°43' W 122°31'0 0.0
2019-Aug-10 22:59N 48°43' W 122°31'0 0.0
2019-Aug-10 22:23N 48°43' W 122°31'0 0.0
2019-Aug-10 21:59N 48°43' W 122°31'0 0.0
2019-Aug-10 21:29N 48°43' W 122°31'0 0.0
2019-Aug-10 20:53N 48°43' W 122°31'0 0.0
2019-Aug-10 20:29N 48°43' W 122°31'0 0.0
2019-Aug-10 19:59N 48°43' W 122°31'0 0.0
2019-Aug-10 19:29N 48°43' W 122°31'0 0.0
2019-Aug-10 18:59N 48°43' W 122°31'0 0.0
2019-Aug-10 18:29N 48°43' W 122°31'0 0.0
2019-Aug-10 17:59N 48°43' W 122°31'0 0.0
2019-Aug-10 17:29N 48°43' W 122°31'0 0.0
2019-Aug-10 16:59N 48°43' W 122°31'0 0.0
2019-Aug-10 16:29N 48°43' W 122°31'0 0.0
2019-Aug-10 15:59N 48°43' W 122°31'0 0.0
2019-Aug-10 15:29N 48°43' W 122°31'0 0.0
2019-Aug-10 14:59N 48°43' W 122°31'0 0.3
2019-Aug-10 14:30N 48°44' W 122°31'4 8.3
2019-Aug-10 14:00N 48°40' W 122°33'5 9.5
2019-Aug-10 13:30N 48°39' W 122°40'713.6
2019-Aug-10 13:00N 48°44' W 122°46'714.1
2019-Aug-10 12:30N 48°48' W 122°55'714.3
2019-Aug-10 12:00N 48°52' W 123°05'815.3
2019-Aug-10 11:30N 48°57' W 123°13'816.6
2019-Aug-10 11:00N 49°03' W 123°23'816.0
2019-Aug-10 10:30N 49°08' W 123°31'815.5
2019-Aug-10 10:00N 49°14' W 123°39'816.3
2019-Aug-10 09:30N 49°19' W 123°49'815.1
2019-Aug-10 09:00N 49°23' W 123°59'815.8
2019-Aug-10 08:30N 49°24' W 124°11'815.5
2019-Aug-10 08:00N 49°28' W 124°22'915.9
2019-Aug-10 07:28N 49°33' W 124°32'715.8
2019-Aug-10 07:00N 49°38' W 124°40'816.0
2019-Aug-10 06:30N 49°44' W 124°48'816.4
2019-Aug-10 06:00N 49°50' W 124°57'815.7
2019-Aug-10 05:30N 49°55' W 125°06'815.4
2019-Aug-10 05:01N 50°02' W 125°13'612.6
2019-Aug-10 04:30N 50°07' W 125°19'815.2
2019-Aug-10 03:58N 50°14' W 125°23'9314.3
2019-Aug-09 21:29N 50°58' W 127°31'814.4
2019-Aug-09 20:56N 51°04' W 127°40'613.8
2019-Aug-09 20:31N 51°08' W 127°47'714.9
2019-Aug-09 20:00N 51°14' W 127°53'816.0
2019-Aug-09 19:30N 51°22' W 127°52'815.7
2019-Aug-09 19:00N 51°30' W 127°52'816.4
2019-Aug-09 18:30N 51°38' W 127°54'816.3
2019-Aug-09 18:00N 51°46' W 127°56'816.3
2019-Aug-09 17:30N 51°55' W 127°56'816.5
2019-Aug-09 17:00N 52°03' W 127°56'713.7
2019-Aug-09 16:30N 52°05' W 128°06'510.7
2019-Aug-09 16:00N 52°10' W 128°08'5 9.3
2019-Aug-09 15:30N 52°14' W 128°12'815.8
2019-Aug-09 15:00N 52°16' W 128°25'815.9
2019-Aug-09 14:30N 52°14' W 128°38'611.2
2019-Aug-09 14:00N 52°16' W 128°47'815.3
2019-Aug-09 13:30N 52°23' W 128°50'815.4
2019-Aug-09 13:00N 52°31' W 128°52'714.6
2019-Aug-09 12:30N 52°38' W 128°55'714.7
2019-Aug-09 12:00N 52°43' W 129°03'815.5
2019-Aug-09 11:30N 52°49' W 129°12'815.3
2019-Aug-09 11:00N 52°55' W 129°21'815.4
2019-Aug-09 10:30N 53°00' W 129°29'915.9
2019-Aug-09 09:58N 53°08' W 129°37'815.6
2019-Aug-09 09:28N 53°14' W 129°43'715.6
2019-Aug-09 08:59N 53°21' W 129°50'815.3
2019-Aug-09 08:27N 53°27' W 129°59'815.9
2019-Aug-09 07:57N 53°32' W 130°09'715.9
2019-Aug-09 07:30N 53°36' W 130°19'815.6
2019-Aug-09 06:59N 53°41' W 130°30'815.7
2019-Aug-09 06:30N 53°46' W 130°40'815.8
2019-Aug-09 06:00N 53°51' W 130°50'815.4
2019-Aug-09 05:30N 53°57' W 130°58'815.9
2019-Aug-09 05:00N 54°05' W 131°00'815.4
2019-Aug-09 04:30N 54°12' W 131°02'815.7
2019-Aug-09 04:00N 54°20' W 131°03'815.4
2019-Aug-09 03:30N 54°28' W 131°04'1115.4
2019-Aug-09 02:46N 54°39' W 131°00'415.6
2019-Aug-09 02:31N 54°43' W 131°02'  

Dump ship's entire track history